Time;durP1;ratioP1;P1;durP2;ratioP2;P2;SDS_P1;SDS_P2;PMS_P1;PMS_P2;Temp;Humidity;BMP_temperature;BMP_pressure;BME280_temperature;BME280_humidity;BME280_pressure;Samples;Min_cycle;Max_cycle;Signal;HPM_P1;HPM_P2
2022/03/04 00:04:30;;;;;;;21.20;13.60;;;-1.50;99.90;;;;;;5088239;28;20056;-50
2022/03/04 00:06:55;;;;;;;22.40;13.52;;;-1.50;99.90;;;;;;5092410;28;20101;-48
2022/03/04 00:09:21;;;;;;;21.55;13.95;;;-1.50;99.90;;;;;;5102459;28;20598;-50
2022/03/04 00:11:50;;;;;;;35.05;14.30;;;-1.50;99.90;;;;;;5107235;28;20055;-47
2022/03/04 00:14:15;;;;;;;20.67;11.75;;;-1.60;99.90;;;;;;5110744;28;20118;-51
2022/03/04 00:16:41;;;;;;;21.33;12.73;;;-1.60;99.90;;;;;;5110478;28;20103;-51
2022/03/04 00:19:07;;;;;;;29.92;11.35;;;-1.60;99.90;;;;;;5092437;28;20801;-51
2022/03/04 00:21:38;;;;;;;32.17;13.75;;;-1.60;99.90;;;;;;5098694;28;20042;-51
2022/03/04 00:24:06;;;;;;;28.67;12.40;;;-1.60;99.90;;;;;;5080728;28;20122;-54
2022/03/04 00:26:32;;;;;;;21.40;12.82;;;-1.70;99.90;;;;;;5107719;28;20557;-53
2022/03/04 00:28:58;;;;;;;57.53;13.60;;;-1.60;99.90;;;;;;5111435;28;20051;-54
2022/03/04 00:31:24;;;;;;;23.30;12.85;;;-1.70;99.90;;;;;;5091133;28;20030;-55
2022/03/04 00:33:51;;;;;;;26.15;12.98;;;-1.60;99.90;;;;;;5110593;28;20502;-53
2022/03/04 00:36:17;;;;;;;28.45;14.80;;;-1.60;99.90;;;;;;5091353;28;20068;-51
2022/03/04 00:38:43;;;;;;;42.17;13.57;;;-1.60;99.90;;;;;;5110790;28;20031;-49
2022/03/04 00:41:08;;;;;;;36.00;15.02;;;-1.60;99.90;;;;;;5092504;28;20051;-54
2022/03/04 00:43:34;;;;;;;25.60;13.55;;;-1.60;99.90;;;;;;5110590;28;20438;-54
2022/03/04 00:46:00;;;;;;;24.17;12.82;;;-1.60;99.90;;;;;;5110743;28;20403;-53
2022/03/04 00:48:26;;;;;;;23.98;12.60;;;-1.60;99.90;;;;;;5110626;28;20036;-53
2022/03/04 00:50:51;;;;;;;23.70;14.48;;;-1.60;99.90;;;;;;5108611;28;20076;-51
2022/03/04 00:53:18;;;;;;;22.23;13.65;;;-1.50;99.90;;;;;;5104941;28;20555;-49
2022/03/04 00:55:43;;;;;;;22.25;12.95;;;-1.50;99.90;;;;;;5090419;28;20032;-54
2022/03/04 00:58:09;;;;;;;22.90;13.35;;;-1.50;99.90;;;;;;5091552;28;20038;-52
2022/03/04 01:00:35;;;;;;;26.83;12.30;;;-1.50;99.90;;;;;;5090515;28;20035;-54
2022/03/04 01:03:02;;;;;;;21.65;11.80;;;-1.50;99.90;;;;;;5090400;28;20561;-49
2022/03/04 01:05:29;;;;;;;29.48;13.73;;;-1.50;99.90;;;;;;5090161;28;20035;-51
2022/03/04 01:07:54;;;;;;;19.48;11.25;;;-1.40;99.90;;;;;;5101014;28;20027;-51
2022/03/04 01:10:20;;;;;;;29.08;11.70;;;-1.40;99.90;;;;;;5107285;28;20574;-50
2022/03/04 01:12:46;;;;;;;23.20;11.60;;;-1.40;99.90;;;;;;5089877;28;20065;-51
2022/03/04 01:15:12;;;;;;;20.67;10.88;;;-1.40;99.90;;;;;;5095009;28;20047;-52
2022/03/04 01:17:37;;;;;;;25.15;11.60;;;-1.40;99.90;;;;;;5108550;28;20027;-53
2022/03/04 01:20:04;;;;;;;19.90;11.88;;;-1.50;99.90;;;;;;5108481;28;20031;-55
2022/03/04 01:22:30;;;;;;;20.08;12.63;;;-1.50;99.90;;;;;;5109944;28;20034;-50
2022/03/04 01:24:55;;;;;;;36.53;12.30;;;-1.50;99.90;;;;;;5110283;28;20032;-49
2022/03/04 01:27:21;;;;;;;29.88;11.02;;;-1.50;99.90;;;;;;5094033;28;20028;-49
2022/03/04 01:29:47;;;;;;;21.88;12.32;;;-1.50;99.90;;;;;;5098976;28;20047;-50
2022/03/04 01:32:12;;;;;;;23.58;12.85;;;-1.50;99.90;;;;;;5108715;28;20023;-49
2022/03/04 01:34:38;;;;;;;29.42;12.10;;;-1.50;99.90;;;;;;5107864;28;20081;-50
2022/03/04 01:37:04;;;;;;;20.05;11.75;;;-1.50;99.90;;;;;;5109170;28;20499;-53
2022/03/04 01:39:30;;;;;;;21.35;12.93;;;-1.50;99.90;;;;;;5089627;28;21521;-49
2022/03/04 01:41:56;;;;;;;18.70;11.10;;;-1.50;99.90;;;;;;5104212;28;20798;-51
2022/03/04 01:44:21;;;;;;;22.30;12.95;;;-1.40;99.90;;;;;;5089951;28;20372;-53
2022/03/04 01:46:47;;;;;;;17.77;10.68;;;-1.40;99.90;;;;;;5105709;28;20386;-50
2022/03/04 01:49:13;;;;;;;23.20;11.90;;;-1.40;99.90;;;;;;5108005;28;20038;-50
2022/03/04 01:51:38;;;;;;;28.83;11.93;;;-1.40;99.90;;;;;;5100549;28;20024;-50
2022/03/04 01:54:04;;;;;;;33.10;12.27;;;-1.40;99.90;;;;;;5089256;28;20031;-49
2022/03/04 01:56:30;;;;;;;20.13;11.45;;;-1.40;99.90;;;;;;5105081;28;20449;-51
2022/03/04 01:58:56;;;;;;;25.92;11.95;;;-1.40;99.90;;;;;;5083709;28;20164;-50
2022/03/04 02:01:22;;;;;;;20.80;11.90;;;-1.40;99.90;;;;;;5090422;28;20137;-49
2022/03/04 02:03:48;;;;;;;91.78;13.63;;;-1.40;99.90;;;;;;5086937;28;20032;-51
2022/03/04 02:06:14;;;;;;;15.75;10.55;;;-1.40;99.90;;;;;;5089476;28;20030;-49
2022/03/04 02:08:39;;;;;;;26.73;11.70;;;-1.50;99.90;;;;;;5089371;28;20020;-50
2022/03/04 02:11:05;;;;;;;26.20;11.55;;;-1.50;99.90;;;;;;5089252;28;20103;-48
2022/03/04 02:13:31;;;;;;;19.33;11.35;;;-1.50;99.90;;;;;;5092476;28;20042;-49
2022/03/04 02:15:56;;;;;;;19.80;12.13;;;-1.50;99.90;;;;;;5089487;28;20020;-50
2022/03/04 02:18:22;;;;;;;19.42;10.68;;;-1.50;99.90;;;;;;5090032;28;20446;-50
2022/03/04 02:20:50;;;;;;;18.73;11.30;;;-1.50;99.90;;;;;;5089621;28;20060;-50
2022/03/04 02:23:17;;;;;;;37.88;11.93;;;-1.40;99.90;;;;;;5086963;28;20066;-50
2022/03/04 02:25:48;;;;;;;19.80;11.98;;;-1.40;99.90;;;;;;5093486;28;20028;-49
2022/03/04 02:28:14;;;;;;;18.88;11.70;;;-1.40;99.90;;;;;;5087162;28;20028;-51
2022/03/04 02:30:40;;;;;;;20.45;11.00;;;-1.40;99.90;;;;;;5076432;28;20028;-50
2022/03/04 02:33:06;;;;;;;19.10;10.45;;;-1.50;99.90;;;;;;5092864;28;20028;-51
2022/03/04 02:35:37;;;;;;;18.77;11.15;;;-1.40;99.90;;;;;;5093099;28;20387;-50
2022/03/04 02:38:03;;;;;;;17.30;10.18;;;-1.40;99.90;;;;;;5106611;28;20035;-51
2022/03/04 02:40:29;;;;;;;46.05;12.40;;;-1.40;99.90;;;;;;5112934;28;20042;-50
2022/03/04 02:42:55;;;;;;;89.97;13.43;;;-1.40;99.90;;;;;;5113514;28;20039;-53
2022/03/04 02:45:21;;;;;;;24.48;9.60;;;-1.50;99.90;;;;;;5112466;28;20039;-52
2022/03/04 02:47:46;;;;;;;19.20;11.18;;;-1.60;99.90;;;;;;5113254;28;20031;-54
2022/03/04 02:50:12;;;;;;;20.05;10.88;;;-1.50;99.90;;;;;;5097111;28;20024;-53
2022/03/04 02:52:38;;;;;;;22.88;10.30;;;-1.50;99.90;;;;;;5091919;28;20062;-49
2022/03/04 02:55:05;;;;;;;17.83;10.32;;;-1.50;99.90;;;;;;5093130;28;20028;-51
2022/03/04 02:57:31;;;;;;;18.83;9.80;;;-1.50;99.90;;;;;;5092817;28;20024;-49
2022/03/04 02:59:56;;;;;;;51.28;11.75;;;-1.50;99.90;;;;;;5092741;28;20036;-49
2022/03/04 03:02:22;;;;;;;15.90;9.63;;;-1.50;99.90;;;;;;5107781;28;20031;-51
2022/03/04 03:04:47;;;;;;;20.17;10.48;;;-1.50;99.90;;;;;;5112922;28;20568;-53
2022/03/04 03:07:13;;;;;;;33.58;11.20;;;-1.50;99.90;;;;;;5112928;28;20044;-55
2022/03/04 03:09:38;;;;;;;20.52;10.55;;;-1.50;99.90;;;;;;5111632;28;20094;-53
2022/03/04 03:12:04;;;;;;;18.13;11.20;;;-1.50;99.90;;;;;;5092382;28;20063;-52
2022/03/04 03:14:30;;;;;;;23.20;12.00;;;-1.50;99.90;;;;;;5108431;28;20507;-49
2022/03/04 03:16:56;;;;;;;19.95;10.98;;;-1.50;99.90;;;;;;5093070;28;20148;-50
2022/03/04 03:19:21;;;;;;;19.88;10.65;;;-1.50;99.90;;;;;;5094421;28;20038;-52
2022/03/04 03:21:47;;;;;;;22.05;9.75;;;-1.40;99.90;;;;;;5091827;28;20046;-48
2022/03/04 03:24:12;;;;;;;23.60;11.13;;;-1.40;99.90;;;;;;5110945;28;20103;-52
2022/03/04 03:26:38;;;;;;;30.88;9.48;;;-1.40;99.90;;;;;;5098509;28;20043;-50
2022/03/04 03:29:03;;;;;;;16.13;9.63;;;-1.40;99.90;;;;;;5092166;28;20633;-50
2022/03/04 03:31:29;;;;;;;19.95;10.43;;;-1.40;99.90;;;;;;5091931;28;20032;-53
2022/03/04 03:33:54;;;;;;;14.52;9.60;;;-1.40;99.90;;;;;;5090014;28;20030;-54
2022/03/04 03:36:21;;;;;;;17.63;10.60;;;-1.40;99.90;;;;;;5092481;28;20032;-53
2022/03/04 03:38:47;;;;;;;16.30;9.02;;;-1.40;99.90;;;;;;5092688;28;20028;-51
2022/03/04 03:41:12;;;;;;;16.17;10.10;;;-1.40;99.90;;;;;;5092254;28;20696;-49
2022/03/04 03:43:39;;;;;;;17.92;10.50;;;-1.40;99.90;;;;;;5091612;28;20028;-53
2022/03/04 03:46:04;;;;;;;18.90;10.38;;;-1.40;99.90;;;;;;5099610;28;20021;-55
2022/03/04 03:48:30;;;;;;;17.75;11.07;;;-1.40;99.90;;;;;;5091763;28;20479;-50
2022/03/04 03:50:56;;;;;;;14.02;9.38;;;-1.40;99.90;;;;;;5110471;28;20028;-49
2022/03/04 03:53:21;;;;;;;25.42;10.27;;;-1.40;99.90;;;;;;5097357;28;20027;-49
2022/03/04 03:55:47;;;;;;;15.45;9.45;;;-1.40;99.90;;;;;;5091555;28;20052;-53
2022/03/04 03:58:13;;;;;;;14.77;9.30;;;-1.40;99.90;;;;;;5073677;28;20024;-52
2022/03/04 04:00:38;;;;;;;15.60;9.13;;;-1.40;99.90;;;;;;5099871;28;20020;-49
2022/03/04 04:03:05;;;;;;;17.48;10.57;;;-1.30;99.90;;;;;;5090978;28;20473;-51
2022/03/04 04:05:31;;;;;;;23.02;10.30;;;-1.40;99.90;;;;;;5090173;28;20480;-50
2022/03/04 04:07:56;;;;;;;45.75;10.70;;;-1.40;99.90;;;;;;5091095;28;20027;-49
2022/03/04 04:10:22;;;;;;;18.25;9.10;;;-1.40;99.90;;;;;;5091036;28;20046;-49
2022/03/04 04:12:48;;;;;;;21.10;8.45;;;-1.50;99.90;;;;;;5090624;28;20046;-50
2022/03/04 04:15:13;;;;;;;14.95;8.73;;;-1.50;99.90;;;;;;5090681;28;20032;-51
2022/03/04 04:17:39;;;;;;;17.40;9.00;;;-1.50;99.90;;;;;;5091336;28;20044;-49
2022/03/04 04:20:06;;;;;;;14.98;8.93;;;-1.50;99.90;;;;;;5090578;28;20032;-49
2022/03/04 04:22:32;;;;;;;27.42;10.25;;;-1.60;99.90;;;;;;5090223;28;20025;-49
2022/03/04 04:24:57;;;;;;;16.10;9.20;;;-1.60;99.90;;;;;;5090593;28;20384;-49
2022/03/04 04:27:23;;;;;;;19.05;10.95;;;-1.60;99.90;;;;;;5090774;28;20100;-53
2022/03/04 04:29:48;;;;;;;14.80;8.90;;;-1.60;99.90;;;;;;5093740;28;20020;-51
2022/03/04 04:32:14;;;;;;;23.92;8.75;;;-1.60;99.90;;;;;;5095363;28;20016;-50
2022/03/04 04:34:40;;;;;;;65.97;10.45;;;-1.60;99.90;;;;;;5090731;28;20141;-54
2022/03/04 04:37:05;;;;;;;14.32;8.32;;;-1.80;99.90;;;;;;5093403;28;20032;-53
2022/03/04 04:39:31;;;;;;;17.17;9.40;;;-1.80;99.90;;;;;;5104001;28;20388;-51
2022/03/04 04:41:56;;;;;;;42.03;10.77;;;-1.70;99.90;;;;;;5090510;28;20032;-52
2022/03/04 04:44:22;;;;;;;34.25;9.95;;;-1.70;99.90;;;;;;5090505;28;20028;-51
2022/03/04 04:46:48;;;;;;;15.50;9.27;;;-1.80;99.90;;;;;;5109770;28;20031;-49
2022/03/04 04:49:13;;;;;;;17.60;9.73;;;-1.80;99.90;;;;;;5109325;28;20027;-51
2022/03/04 04:51:39;;;;;;;15.63;9.93;;;-1.70;99.90;;;;;;5110377;28;20437;-51
2022/03/04 04:54:05;;;;;;;22.45;9.48;;;-1.70;99.90;;;;;;5107712;28;20365;-52
2022/03/04 04:56:30;;;;;;;13.43;8.43;;;-1.70;99.90;;;;;;5091259;28;20556;-52
2022/03/04 04:58:56;;;;;;;15.30;8.80;;;-1.70;99.90;;;;;;5106236;28;20027;-52
2022/03/04 05:01:21;;;;;;;42.50;9.05;;;-1.70;99.90;;;;;;5110248;28;20479;-55
2022/03/04 05:03:47;;;;;;;58.35;8.95;;;-1.70;99.90;;;;;;5110364;28;20403;-50
2022/03/04 05:06:13;;;;;;;16.52;8.25;;;-1.90;99.90;;;;;;5077323;28;20713;-49
2022/03/04 05:08:38;;;;;;;14.27;7.90;;;-1.90;99.90;;;;;;5091467;28;20103;-51
2022/03/04 05:11:04;;;;;;;15.52;8.70;;;-1.90;99.90;;;;;;5090100;28;20028;-50
2022/03/04 05:13:30;;;;;;;14.15;7.28;;;-1.80;99.90;;;;;;5089659;28;20069;-54
2022/03/04 05:15:55;;;;;;;12.40;7.57;;;-1.80;99.90;;;;;;5090055;28;20040;-52
2022/03/04 05:18:21;;;;;;;16.38;8.00;;;-1.80;99.90;;;;;;5089572;28;20712;-52
2022/03/04 05:20:47;;;;;;;13.05;8.30;;;-1.70;99.90;;;;;;5089970;28;20132;-49
2022/03/04 05:23:59;;;;;;;17.58;7.80;;;-1.70;99.90;;;;;;5090003;28;20028;-54
2022/03/04 05:25:58;;;;;;;14.52;7.53;;;-1.70;99.90;;;;;;5089341;28;20024;-49
2022/03/04 05:28:24;;;;;;;13.77;7.82;;;-1.70;99.90;;;;;;5089212;28;20433;-55
2022/03/04 05:30:49;;;;;;;13.23;7.55;;;-1.70;99.90;;;;;;5089651;28;20020;-54
2022/03/04 05:33:15;;;;;;;16.33;7.90;;;-1.70;99.90;;;;;;5089444;28;20154;-55
2022/03/04 05:35:41;;;;;;;12.23;7.50;;;-1.70;99.90;;;;;;5089555;28;20047;-51
2022/03/04 05:38:06;;;;;;;27.83;9.25;;;-1.70;99.90;;;;;;5089016;28;20020;-54
2022/03/04 05:40:32;;;;;;;13.18;7.38;;;-1.70;99.90;;;;;;5089773;28;20028;-53
2022/03/04 05:42:58;;;;;;;22.73;9.27;;;-1.80;99.90;;;;;;5089359;28;20036;-50
2022/03/04 05:45:23;;;;;;;17.63;9.75;;;-1.80;99.90;;;;;;5089340;28;20419;-49
2022/03/04 05:47:49;;;;;;;16.75;9.48;;;-1.80;99.90;;;;;;5089395;28;20038;-51
2022/03/04 05:50:15;;;;;;;18.88;9.65;;;-1.80;99.90;;;;;;5089569;28;20027;-54
2022/03/04 05:52:41;;;;;;;14.65;8.82;;;-1.80;99.90;;;;;;5088748;28;20051;-51
2022/03/04 05:55:07;;;;;;;30.45;8.73;;;-1.80;99.90;;;;;;5089290;28;20456;-53
2022/03/04 05:57:33;;;;;;;14.18;8.27;;;-1.80;99.90;;;;;;5088975;28;20039;-51
2022/03/04 05:59:59;;;;;;;22.80;7.28;;;-1.80;99.90;;;;;;5089117;28;20039;-52
2022/03/04 06:02:27;;;;;;;11.10;7.22;;;-1.80;99.90;;;;;;5112208;22;20066;-48
2022/03/04 06:04:53;;;;;;;15.63;7.97;;;-1.80;99.90;;;;;;5097476;28;20019;-51
2022/03/04 06:07:19;;;;;;;12.75;7.82;;;-1.90;99.90;;;;;;5108893;28;20111;-50
2022/03/04 06:09:44;;;;;;;22.15;7.60;;;-1.90;99.90;;;;;;5094276;28;20031;-51
2022/03/04 06:12:10;;;;;;;15.35;6.95;;;-1.90;99.90;;;;;;5097969;28;20527;-49
2022/03/04 06:14:36;;;;;;;10.38;6.28;;;-1.80;99.90;;;;;;5109347;28;20519;-49
2022/03/04 06:17:02;;;;;;;10.95;6.38;;;-1.90;99.90;;;;;;5099927;28;20446;-49
2022/03/04 06:19:28;;;;;;;19.38;6.70;;;-1.90;99.90;;;;;;5091696;28;20059;-50
2022/03/04 06:21:54;;;;;;;11.88;7.03;;;-1.80;99.90;;;;;;5099286;28;20565;-48
2022/03/04 06:24:20;;;;;;;54.70;7.55;;;-1.80;99.90;;;;;;5091556;28;20062;-50
2022/03/04 06:26:45;;;;;;;46.50;7.63;;;-1.90;99.90;;;;;;5089100;28;20100;-50
2022/03/04 06:29:11;;;;;;;9.13;6.07;;;-1.90;99.90;;;;;;5099873;28;20024;-49
2022/03/04 06:31:36;;;;;;;25.38;6.85;;;-2.00;99.90;;;;;;5089937;28;20031;-49
2022/03/04 06:34:02;;;;;;;16.10;6.68;;;-2.00;99.90;;;;;;5088702;28;20020;-49
2022/03/04 06:36:27;;;;;;;29.25;6.57;;;-2.00;99.90;;;;;;5089531;28;20119;-50
2022/03/04 06:38:53;;;;;;;8.65;5.18;;;-2.00;99.90;;;;;;5092119;28;20028;-49
2022/03/04 06:41:18;;;;;;;8.77;5.05;;;-2.00;99.90;;;;;;5097285;28;20415;-47
2022/03/04 06:43:45;;;;;;;10.52;5.95;;;-2.00;99.90;;;;;;5094193;28;20035;-52
2022/03/04 06:46:10;;;;;;;9.15;5.65;;;-2.00;99.90;;;;;;5090823;28;20020;-51
2022/03/04 06:48:36;;;;;;;9.98;5.97;;;-2.00;99.90;;;;;;5109429;28;20031;-51
2022/03/04 06:51:03;;;;;;;8.05;5.15;;;-1.90;99.90;;;;;;5107331;28;20032;-50
2022/03/04 06:53:29;;;;;;;7.53;4.97;;;-1.90;99.90;;;;;;5108800;28;20502;-51
2022/03/04 06:55:54;;;;;;;8.43;4.80;;;-1.90;99.90;;;;;;5102755;28;20024;-53
2022/03/04 06:58:20;;;;;;;9.15;5.57;;;-1.90;99.90;;;;;;5088499;28;20103;-50
2022/03/04 07:00:47;;;;;;;9.70;6.10;;;-1.90;99.90;;;;;;5089394;28;20381;-50
2022/03/04 07:03:13;;;;;;;24.40;5.93;;;-1.80;99.90;;;;;;5103603;28;20051;-51
2022/03/04 07:05:39;;;;;;;11.52;6.35;;;-1.80;99.90;;;;;;5108707;28;20440;-51
2022/03/04 07:08:11;;;;;;;11.50;6.80;;;-1.80;99.90;;;;;;5108866;28;20024;-50
2022/03/04 07:10:38;;;;;;;12.15;7.30;;;-1.80;99.90;;;;;;5112427;28;20061;-54
2022/03/04 07:13:04;;;;;;;20.52;9.05;;;-1.70;99.90;;;;;;5099801;28;20031;-50
2022/03/04 07:15:30;;;;;;;9.88;6.32;;;-1.70;99.90;;;;;;5092285;28;20114;-50
2022/03/04 07:17:56;;;;;;;12.25;6.20;;;-1.70;99.90;;;;;;5092015;28;20028;-53
2022/03/04 07:20:21;;;;;;;12.40;7.22;;;-1.70;99.90;;;;;;5094826;28;20076;-52
2022/03/04 07:22:47;;;;;;;22.58;7.03;;;-1.70;99.90;;;;;;5101134;28;20036;-51
2022/03/04 07:25:15;;;;;;;15.45;7.28;;;-1.80;99.90;;;;;;5095979;28;20040;-50
2022/03/04 07:27:41;;;;;;;12.13;6.75;;;-1.80;99.90;;;;;;5110127;28;20027;-50
2022/03/04 07:30:11;;;;;;;23.45;6.68;;;-1.80;99.90;;;;;;5105537;28;20526;-51
2022/03/04 07:32:38;;;;;;;9.32;6.00;;;-1.80;99.90;;;;;;5097652;28;20461;-49
2022/03/04 07:35:07;;;;;;;11.70;6.85;;;-1.80;99.90;;;;;;5085473;28;20532;-51
2022/03/04 07:37:34;;;;;;;12.20;7.00;;;-1.70;99.90;;;;;;5110974;28;20226;-51
2022/03/04 07:39:59;;;;;;;16.08;8.30;;;-1.70;99.90;;;;;;5112055;28;20020;-51
2022/03/04 07:42:25;;;;;;;12.15;7.30;;;-1.60;99.90;;;;;;5111708;28;20031;-50
2022/03/04 07:44:50;;;;;;;8.88;6.13;;;-1.60;99.90;;;;;;5112174;28;20038;-53
2022/03/04 07:47:16;;;;;;;13.52;5.65;;;-1.60;99.90;;;;;;5111668;28;20074;-51
2022/03/04 07:49:42;;;;;;;13.48;7.90;;;-1.50;99.90;;;;;;5111907;28;20030;-53
2022/03/04 07:52:09;;;;;;;15.55;8.10;;;-1.50;99.90;;;;;;5111577;28;20039;-54
2022/03/04 07:54:34;;;;;;;13.45;7.30;;;-1.50;99.90;;;;;;5093205;28;20030;-53
2022/03/04 07:57:00;;;;;;;18.45;7.82;;;-1.50;99.90;;;;;;5111642;28;20023;-53
2022/03/04 07:59:25;;;;;;;9.80;5.32;;;-1.40;99.90;;;;;;5093425;28;20031;-53
2022/03/04 08:01:51;;;;;;;8.23;5.20;;;-1.40;99.90;;;;;;5111116;28;20042;-51
2022/03/04 08:04:17;;;;;;;10.63;6.43;;;-1.30;99.90;;;;;;5111577;28;20023;-50
2022/03/04 08:06:42;;;;;;;8.82;5.82;;;-1.30;99.90;;;;;;5112124;28;20019;-52
2022/03/04 08:09:08;;;;;;;13.95;7.70;;;-1.30;99.90;;;;;;5112494;28;20024;-50
2022/03/04 08:11:34;;;;;;;12.90;7.15;;;-1.20;99.90;;;;;;5112006;28;20067;-52
2022/03/04 08:14:00;;;;;;;13.23;7.45;;;-1.20;99.90;;;;;;5111068;28;20030;-52
2022/03/04 08:16:29;;;;;;;13.35;7.55;;;-1.20;99.90;;;;;;5111680;28;20073;-52
2022/03/04 08:18:57;;;;;;;9.38;5.82;;;-1.10;99.90;;;;;;5111203;28;20020;-52
2022/03/04 08:21:23;;;;;;;9.02;5.65;;;-1.10;99.90;;;;;;5111164;28;20173;-52
2022/03/04 08:23:49;;;;;;;10.57;5.40;;;-1.00;99.90;;;;;;5111585;28;20403;-55
2022/03/04 08:26:14;;;;;;;8.85;5.55;;;-1.00;99.90;;;;;;5111460;28;20036;-53
2022/03/04 08:28:40;;;;;;;6.55;4.82;;;-0.90;99.90;;;;;;5111538;28;20027;-51
2022/03/04 08:31:11;;;;;;;10.60;5.65;;;-0.90;99.90;;;;;;5111682;28;20063;-50
2022/03/04 08:33:38;;;;;;;11.48;6.38;;;-0.90;99.90;;;;;;5110595;28;20030;-53
2022/03/04 08:36:04;;;;;;;11.10;6.75;;;-0.90;99.90;;;;;;5092198;28;20526;-54
2022/03/04 08:38:30;;;;;;;21.73;8.20;;;-0.80;99.90;;;;;;5111165;28;20024;-51
2022/03/04 08:40:56;;;;;;;9.20;6.53;;;-0.80;99.90;;;;;;5111050;28;20045;-51
2022/03/04 08:43:21;;;;;;;11.35;7.40;;;-0.80;99.90;;;;;;5111126;28;20029;-51
2022/03/04 08:45:47;;;;;;;12.52;7.18;;;-0.80;99.90;;;;;;5092924;28;20108;-51
2022/03/04 08:48:13;;;;;;;13.95;7.63;;;-0.70;99.90;;;;;;5111255;28;20023;-51
2022/03/04 08:50:38;;;;;;;10.77;6.28;;;-0.70;99.90;;;;;;5110959;28;20028;-52
2022/03/04 08:53:04;;;;;;;13.02;7.95;;;-0.70;99.90;;;;;;5110794;28;20023;-52
2022/03/04 08:55:30;;;;;;;16.08;9.27;;;-0.60;99.90;;;;;;5110523;28;20096;-52
2022/03/04 08:57:57;;;;;;;12.05;7.82;;;-0.50;99.90;;;;;;5111332;28;20444;-52
2022/03/04 09:00:23;;;;;;;16.02;8.77;;;-0.50;99.90;;;;;;5110834;28;20023;-52
2022/03/04 09:02:49;;;;;;;13.13;8.25;;;-0.40;99.90;;;;;;5110351;28;20407;-51
2022/03/04 09:05:15;;;;;;;16.73;9.52;;;-0.30;99.90;;;;;;5110648;28;20024;-52
2022/03/04 09:07:41;;;;;;;11.85;7.93;;;-0.30;99.90;;;;;;5110941;28;20530;-51
2022/03/04 09:10:07;;;;;;;11.57;6.97;;;-0.20;99.90;;;;;;5110469;28;20019;-53
2022/03/04 09:12:33;;;;;;;12.80;9.35;;;-0.20;99.90;;;;;;5110141;28;20084;-51
2022/03/04 09:14:58;;;;;;;11.82;8.10;;;-0.10;99.90;;;;;;5110904;28;20051;-51
2022/03/04 09:17:24;;;;;;;9.68;5.97;;;0.00;99.90;;;;;;5110028;28;20028;-53
2022/03/04 09:19:50;;;;;;;10.35;4.82;;;0.00;99.90;;;;;;5110884;28;20036;-51
2022/03/04 09:22:15;;;;;;;8.85;5.10;;;0.10;99.90;;;;;;5092033;28;20031;-52
2022/03/04 09:24:41;;;;;;;8.75;6.00;;;0.10;99.90;;;;;;5110949;28;20400;-51
2022/03/04 09:27:07;;;;;;;10.35;6.30;;;0.10;99.90;;;;;;5105489;27;20038;-53
2022/03/04 09:29:33;;;;;;;7.80;4.82;;;0.20;99.90;;;;;;5110621;28;20032;-54
2022/03/04 09:31:59;;;;;;;8.43;5.53;;;0.10;99.90;;;;;;5108660;28;20536;-51
2022/03/04 09:34:25;;;;;;;9.38;5.65;;;0.20;99.90;;;;;;5090266;28;20028;-52
2022/03/04 09:36:51;;;;;;;10.30;6.43;;;0.30;99.90;;;;;;5090086;28;20024;-53
2022/03/04 09:39:16;;;;;;;11.30;7.20;;;0.30;99.90;;;;;;5091438;28;20066;-55
2022/03/04 09:41:45;;;;;;;11.88;7.00;;;0.30;99.90;;;;;;5108732;28;20391;-53
2022/03/04 09:44:15;;;;;;;10.85;7.07;;;0.40;99.90;;;;;;5109561;28;20024;-53
2022/03/04 09:46:42;;;;;;;8.50;6.40;;;0.50;99.90;;;;;;5091737;28;20074;-52
2022/03/04 09:49:09;;;;;;;11.45;6.38;;;0.50;99.90;;;;;;5109775;28;20644;-55
2022/03/04 09:51:35;;;;;;;11.05;5.93;;;0.60;99.90;;;;;;5110131;28;20423;-51
2022/03/04 09:54:01;;;;;;;9.15;6.25;;;0.60;99.90;;;;;;5109676;28;20032;-52
2022/03/04 09:56:27;;;;;;;10.38;6.07;;;0.70;99.90;;;;;;5109845;28;20032;-49
2022/03/04 09:58:53;;;;;;;7.80;5.10;;;0.70;99.90;;;;;;5109998;28;20032;-52
2022/03/04 10:01:19;;;;;;;11.45;5.28;;;0.80;99.90;;;;;;5110087;28;20062;-52
2022/03/04 10:03:54;;;;;;;10.00;5.72;;;0.80;99.90;;;;;;5109905;28;20484;-53
2022/03/04 10:06:21;;;;;;;6.80;5.43;;;0.90;99.90;;;;;;5091905;28;20024;-51
2022/03/04 10:08:50;;;;;;;7.32;4.75;;;0.90;99.90;;;;;;5109350;28;20088;-49
2022/03/04 10:11:28;;;;;;;8.18;4.90;;;0.90;99.90;;;;;;5091902;28;20502;-50
2022/03/04 10:14:02;;;;;;;7.93;4.97;;;0.90;99.90;;;;;;5109899;28;20028;-51
2022/03/04 10:16:34;;;;;;;6.65;4.80;;;1.00;99.90;;;;;;5109804;28;20106;-51
2022/03/04 10:19:13;;;;;;;9.00;5.32;;;1.00;99.90;;;;;;5109401;28;20440;-51
2022/03/04 10:21:59;;;;;;;7.55;4.82;;;1.10;99.90;;;;;;5109542;28;20107;-53
2022/03/04 10:24:37;;;;;;;7.15;4.90;;;1.10;99.90;;;;;;5103508;28;20032;-53
2022/03/04 10:27:09;;;;;;;9.68;5.53;;;1.20;99.90;;;;;;5109758;28;20506;-52
2022/03/04 10:29:38;;;;;;;6.95;4.57;;;1.30;99.90;;;;;;5109871;28;20028;-53
2022/03/04 10:32:26;;;;;;;9.60;5.97;;;1.40;99.90;;;;;;5090923;28;20023;-51
2022/03/04 10:35:04;;;;;;;7.22;4.82;;;1.40;99.90;;;;;;5109905;28;20090;-53
2022/03/04 10:37:56;;;;;;;10.48;6.10;;;1.50;99.90;;;;;;5108774;28;20165;-52
2022/03/04 10:40:26;;;;;;;8.93;5.38;;;1.50;99.90;;;;;;5110148;28;20019;-50
2022/03/04 10:42:57;;;;;;;7.72;5.13;;;1.50;99.90;;;;;;5110559;28;20074;-54
2022/03/04 10:45:30;;;;;;;8.32;5.32;;;1.60;99.90;;;;;;5113637;28;20042;-54
2022/03/04 10:47:56;;;;;;;8.20;4.95;;;1.70;99.90;;;;;;5121367;27;20031;-52
2022/03/04 10:50:42;;;;;;;8.30;5.70;;;1.90;99.90;;;;;;5134131;27;20405;-52
2022/03/04 10:53:09;;;;;;;11.65;5.63;;;2.10;99.90;;;;;;5119150;27;20455;-53
2022/03/04 10:55:39;;;;;;;9.27;5.15;;;2.40;99.90;;;;;;5094278;28;20368;-49
2022/03/04 10:58:38;;;;;;;6.18;5.03;;;2.60;99.90;;;;;;5113331;28;20043;-54
2022/03/04 11:01:06;;;;;;;7.10;5.20;;;2.70;99.90;;;;;;5112985;28;20483;-53
2022/03/04 11:03:36;;;;;;;8.38;5.50;;;2.80;99.90;;;;;;5112975;28;20057;-53
2022/03/04 11:06:07;;;;;;;7.85;5.40;;;2.90;99.90;;;;;;5113502;28;20031;-54
2022/03/04 11:08:33;;;;;;;7.95;4.80;;;3.00;99.90;;;;;;5112917;28;20058;-52
2022/03/04 11:11:00;;;;;;;8.90;5.28;;;3.10;99.90;;;;;;5113235;28;20047;-51
2022/03/04 11:13:26;;;;;;;8.23;5.40;;;3.10;99.90;;;;;;5094680;28;20395;-53
2022/03/04 11:15:53;;;;;;;8.00;5.72;;;3.10;99.90;;;;;;5113165;28;20024;-52
2022/03/04 11:18:21;;;;;;;9.95;5.75;;;3.20;99.90;;;;;;5111661;28;20036;-51
2022/03/04 11:20:50;;;;;;;6.57;5.07;;;3.20;99.90;;;;;;5113601;28;20027;-52
2022/03/04 11:23:22;;;;;;;7.63;4.82;;;3.40;99.90;;;;;;5112514;28;20035;-52
2022/03/04 11:25:58;;;;;;;7.53;4.85;;;3.60;99.90;;;;;;5112633;28;20101;-53
2022/03/04 11:28:44;;;;;;;6.32;4.53;;;3.70;99.90;;;;;;5108509;28;20031;-52
2022/03/04 11:31:13;;;;;;;6.43;4.90;;;3.90;99.90;;;;;;5112522;28;20148;-52
2022/03/04 11:33:49;;;;;;;5.43;4.32;;;4.00;99.90;;;;;;5112880;27;20559;-51
2022/03/04 11:36:17;;;;;;;6.75;4.60;;;4.00;99.90;;;;;;5090013;28;20403;-52
2022/03/04 11:38:48;;;;;;;5.70;4.15;;;4.00;99.90;;;;;;5112472;28;20039;-53
2022/03/04 11:41:26;;;;;;;7.15;4.68;;;3.90;99.90;;;;;;5112442;28;20036;-52
2022/03/04 11:43:56;;;;;;;6.70;4.40;;;4.00;99.90;;;;;;5093648;28;20028;-51
2022/03/04 11:46:41;;;;;;;8.15;4.57;;;4.10;99.90;;;;;;5112400;28;20042;-50
2022/03/04 11:49:32;;;;;;;6.97;3.88;;;4.20;99.90;;;;;;5112516;28;20039;-51
2022/03/04 11:52:10;;;;;;;5.88;3.75;;;4.30;99.90;;;;;;5110917;28;20019;-53
2022/03/04 11:54:38;;;;;;;4.38;3.47;;;4.30;99.90;;;;;;5111328;28;20023;-51
2022/03/04 11:57:30;;;;;;;6.05;3.72;;;4.30;99.90;;;;;;5112500;28;20034;-53
2022/03/04 11:59:58;;;;;;;6.05;3.17;;;4.10;99.90;;;;;;5108050;28;20036;-55
2022/03/04 12:02:44;;;;;;;4.22;3.47;;;4.10;99.90;;;;;;5120815;22;20090;-52
2022/03/04 12:05:13;;;;;;;5.40;3.08;;;4.20;99.90;;;;;;5070045;28;20104;-51
2022/03/04 12:07:44;;;;;;;5.18;3.50;;;4.20;99.90;;;;;;5070369;28;20108;-54
2022/03/04 12:10:14;;;;;;;7.22;3.80;;;4.20;99.90;;;;;;5071194;28;20017;-51
2022/03/04 12:12:59;;;;;;;4.72;3.50;;;4.20;99.90;;;;;;5058851;28;20064;-52
2022/03/04 12:15:24;;;;;;;4.90;3.28;;;4.30;99.90;;;;;;5051049;28;20049;-52
2022/03/04 12:18:05;;;;;;;5.10;2.70;;;4.30;99.90;;;;;;5068652;28;20458;-54
2022/03/04 12:20:51;;;;;;;5.00;3.10;;;4.40;99.90;;;;;;5071382;28;20032;-50
2022/03/04 12:23:18;;;;;;;3.97;3.30;;;4.40;99.90;;;;;;5071698;28;20024;-56
2022/03/04 12:25:56;;;;;;;6.38;3.50;;;4.40;99.90;;;;;;5071832;28;20041;-56
2022/03/04 12:28:30;;;;;;;5.88;3.15;;;4.40;99.90;;;;;;5066879;28;20391;-52
2022/03/04 12:31:02;;;;;;;5.43;2.97;;;4.40;99.90;;;;;;5069815;28;20023;-55
2022/03/04 12:33:32;;;;;;;4.63;3.20;;;4.50;99.90;;;;;;5056574;28;20174;-56
2022/03/04 12:35:59;;;;;;;5.25;3.90;;;4.50;99.90;;;;;;5049915;28;20037;-56
2022/03/04 12:38:26;;;;;;;6.38;3.17;;;4.50;99.90;;;;;;5051050;28;20025;-52
2022/03/04 12:40:54;;;;;;;3.85;3.10;;;4.50;99.90;;;;;;5066039;28;20052;-54
2022/03/04 12:43:20;;;;;;;4.47;3.22;;;4.50;99.90;;;;;;5070352;28;20039;-53
2022/03/04 12:45:45;;;;;;;7.07;3.45;;;4.60;99.90;;;;;;5069866;28;20024;-51